Time;durP1;ratioP1;P1;durP2;ratioP2;P2;SDS_P1;SDS_P2;PMS_P1;PMS_P2;Temp;Humidity;BMP_temperature;BMP_pressure;BME280_temperature;BME280_humidity;BME280_pressure;Samples;Min_cycle;Max_cycle;Signal;HPM_P1;HPM_P2
2023/01/14 00:02:22;;;;;;;18.40;5.77;;;9.40;99.90;;;;;;5029146;28;20225;-79
2023/01/14 00:04:49;;;;;;;18.67;5.70;;;9.30;99.90;;;;;;5032033;28;20198;-84
2023/01/14 00:07:17;;;;;;;24.07;4.83;;;9.20;99.90;;;;;;5033405;28;20202;-85
2023/01/14 00:09:44;;;;;;;16.67;4.10;;;9.20;99.90;;;;;;5023858;28;20227;-87
2023/01/14 00:12:11;;;;;;;24.87;5.13;;;9.10;99.90;;;;;;5025116;28;20225;-86
2023/01/14 00:14:38;;;;;;;30.07;4.70;;;9.10;99.90;;;;;;5032621;28;20206;-84
2023/01/14 00:17:04;;;;;;;21.10;4.93;;;9.00;99.90;;;;;;5033287;28;20213;-86
2023/01/14 00:19:31;;;;;;;22.17;5.37;;;8.90;99.90;;;;;;5033635;28;20285;-86
2023/01/14 00:21:58;;;;;;;25.10;4.87;;;8.90;99.90;;;;;;5053267;28;20206;-85
2023/01/14 00:24:27;;;;;;;31.67;6.03;;;8.90;99.90;;;;;;5053025;28;20202;-87
2023/01/14 00:26:55;;;;;;;18.40;4.47;;;8.90;99.90;;;;;;5053353;28;20222;-89
2023/01/14 00:29:24;;;;;;;25.63;5.37;;;8.80;99.90;;;;;;5053047;28;20301;-88
2023/01/14 00:31:50;;;;;;;24.27;5.77;;;8.80;99.90;;;;;;5052779;28;20221;-83
2023/01/14 00:34:17;;;;;;;20.70;5.40;;;8.80;99.90;;;;;;5053149;28;20210;-85
2023/01/14 00:36:45;;;;;;;28.10;6.43;;;8.70;99.90;;;;;;5039213;28;20313;-88
2023/01/14 00:39:13;;;;;;;19.13;4.63;;;8.70;99.90;;;;;;5034144;28;20255;-86
2023/01/14 00:41:41;;;;;;;19.63;4.67;;;8.70;99.90;;;;;;5031153;28;20620;-83
2023/01/14 00:44:08;;;;;;;16.73;4.57;;;8.70;99.90;;;;;;5032428;28;20270;-85
2023/01/14 00:46:37;;;;;;;18.93;4.30;;;8.70;99.90;;;;;;5031689;28;20218;-86
2023/01/14 00:49:05;;;;;;;21.83;5.60;;;8.60;99.90;;;;;;5031167;28;20282;-88
2023/01/14 00:51:33;;;;;;;20.27;5.80;;;8.60;99.90;;;;;;5032436;28;20229;-86
2023/01/14 00:54:00;;;;;;;20.70;4.90;;;8.50;99.90;;;;;;5030004;28;20230;-87
2023/01/14 00:56:28;;;;;;;21.87;4.93;;;8.60;99.90;;;;;;5032073;28;20206;-84
2023/01/14 00:58:56;;;;;;;15.80;4.73;;;8.60;99.90;;;;;;5032217;28;20195;-87
2023/01/14 01:01:23;;;;;;;24.87;6.07;;;8.60;99.90;;;;;;5046585;28;20306;-87
2023/01/14 01:03:52;;;;;;;19.57;4.67;;;8.60;99.90;;;;;;5051177;28;20202;-87
2023/01/14 01:06:22;;;;;;;22.90;4.90;;;8.60;99.90;;;;;;5052007;28;20217;-84
2023/01/14 01:08:49;;;;;;;19.47;5.03;;;8.50;99.90;;;;;;5032493;28;20901;-87
2023/01/14 01:11:17;;;;;;;24.10;5.70;;;8.50;99.90;;;;;;5031409;28;20313;-86
2023/01/14 01:13:45;;;;;;;23.00;5.97;;;8.60;99.90;;;;;;5031746;28;20202;-86
2023/01/14 01:16:15;;;;;;;21.53;4.73;;;8.60;99.90;;;;;;5026312;28;20790;-89
2023/01/14 01:18:43;;;;;;;23.07;4.83;;;8.60;99.90;;;;;;5026684;28;20203;-79
2023/01/14 01:21:15;;;;;;;20.27;5.17;;;8.50;99.90;;;;;;5026361;28;20207;-80
2023/01/14 01:23:43;;;;;;;29.23;5.33;;;8.50;99.90;;;;;;5025839;28;20980;-78
2023/01/14 01:26:13;;;;;;;19.17;5.47;;;8.50;99.90;;;;;;5026381;28;20198;-77
2023/01/14 01:28:40;;;;;;;23.00;4.70;;;8.50;99.90;;;;;;5026355;28;20285;-78
2023/01/14 01:31:09;;;;;;;15.30;4.00;;;8.50;99.90;;;;;;5027064;28;20417;-82
2023/01/14 01:33:38;;;;;;;13.73;5.20;;;8.50;99.90;;;;;;5028719;28;20206;-77
2023/01/14 01:36:08;;;;;;;17.57;4.70;;;8.50;99.90;;;;;;5027367;28;20286;-80
2023/01/14 01:38:34;;;;;;;15.50;5.10;;;8.50;99.90;;;;;;5025489;28;20649;-80
2023/01/14 01:41:01;;;;;;;22.27;5.17;;;8.50;99.90;;;;;;5025602;28;20313;-79
2023/01/14 01:43:30;;;;;;;15.53;4.53;;;8.50;99.90;;;;;;5026131;28;20333;-78
2023/01/14 01:45:57;;;;;;;25.20;5.90;;;8.50;99.90;;;;;;5030100;28;20198;-78
2023/01/14 01:48:29;;;;;;;21.87;6.23;;;8.50;99.90;;;;;;5045813;28;20283;-78
2023/01/14 01:51:04;;;;;;;22.63;5.10;;;8.50;99.90;;;;;;5037536;28;20216;-78
2023/01/14 01:53:32;;;;;;;26.63;5.83;;;8.40;99.90;;;;;;5023574;28;20620;-81
2023/01/14 01:55:59;;;;;;;26.23;4.83;;;8.40;99.90;;;;;;5026508;28;20217;-89
2023/01/14 01:58:27;;;;;;;16.07;4.00;;;8.40;99.90;;;;;;5033746;28;20194;-85
2023/01/14 02:00:54;;;;;;;19.03;5.60;;;8.40;99.90;;;;;;5052108;28;20496;-86
2023/01/14 02:03:30;;;;;;;21.33;5.10;;;8.30;99.90;;;;;;5049442;28;20290;-79
2023/01/14 02:05:58;;;;;;;22.67;4.63;;;8.30;99.90;;;;;;5049572;28;20194;-86
2023/01/14 02:08:25;;;;;;;21.13;4.23;;;8.30;99.90;;;;;;5036942;28;20818;-85
2023/01/14 02:11:09;;;;;;;24.27;5.47;;;8.20;99.90;;;;;;5036304;28;20210;-88
2023/01/14 02:13:46;;;;;;;25.27;5.53;;;8.20;99.90;;;;;;5048601;28;20633;-88
2023/01/14 02:16:22;;;;;;;18.40;4.40;;;8.20;99.90;;;;;;5038409;28;20238;-89
2023/01/14 02:19:00;;;;;;;26.03;4.63;;;8.30;99.90;;;;;;5026869;28;20198;-87
2023/01/14 02:21:32;;;;;;;19.13;4.60;;;8.20;99.90;;;;;;5026161;28;20598;-80
2023/01/14 02:24:36;;;;;;;20.47;5.03;;;8.10;99.90;;;;;;5033164;28;20206;-78
2023/01/14 02:27:39;;;;;;;25.93;5.20;;;8.00;99.90;;;;;;5044130;28;20251;-78
2023/01/14 02:30:37;;;;;;;21.57;5.47;;;8.00;99.90;;;;;;5046302;28;20218;-81
2023/01/14 02:33:16;;;;;;;20.17;4.73;;;7.80;99.90;;;;;;5045895;28;20861;-82
2023/01/14 02:35:46;;;;;;;25.57;4.97;;;7.80;99.90;;;;;;5045422;28;20288;-78
2023/01/14 02:38:24;;;;;;;19.80;4.60;;;7.80;99.90;;;;;;5030014;28;20289;-79
2023/01/14 02:40:59;;;;;;;21.13;3.90;;;7.80;99.90;;;;;;5025543;28;20653;-78
2023/01/14 02:46:25;;;;;;;22.60;4.70;;;7.70;99.90;;;;;;5025619;28;20522;-80
2023/01/14 02:48:54;;;;;;;20.07;4.00;;;7.80;99.90;;;;;;5022224;28;20214;-78
2023/01/14 02:51:22;;;;;;;20.17;4.77;;;7.70;99.90;;;;;;5023347;28;20222;-79
2023/01/14 02:53:49;;;;;;;29.70;5.37;;;7.70;99.90;;;;;;5023266;28;20255;-79
2023/01/14 02:56:16;;;;;;;29.67;5.13;;;7.70;99.90;;;;;;5022930;28;20210;-80
2023/01/14 02:59:02;;;;;;;24.23;5.27;;;7.70;99.90;;;;;;5025012;28;20313;-78
2023/01/14 03:01:50;;;;;;;20.07;4.47;;;7.70;99.90;;;;;;5023875;28;20508;-84
2023/01/14 03:04:39;;;;;;;24.57;5.07;;;7.70;99.90;;;;;;5025782;28;20214;-88
2023/01/14 03:07:13;;;;;;;26.63;4.87;;;7.60;99.90;;;;;;5029865;28;20368;-87
2023/01/14 03:09:50;;;;;;;17.47;4.20;;;7.60;99.90;;;;;;5039973;28;20604;-87
2023/01/14 03:12:23;;;;;;;29.47;5.63;;;7.60;99.90;;;;;;5049131;28;20233;-81
2023/01/14 03:14:58;;;;;;;24.47;5.40;;;7.70;99.90;;;;;;5044472;28;20242;-79
2023/01/14 03:17:31;;;;;;;25.97;6.03;;;7.60;99.90;;;;;;5042849;28;20298;-79
2023/01/14 03:20:04;;;;;;;26.27;4.97;;;7.60;99.90;;;;;;5043434;28;20201;-78
2023/01/14 03:22:33;;;;;;;23.23;5.43;;;7.60;99.90;;;;;;5045408;28;20206;-78
2023/01/14 03:25:02;;;;;;;27.87;5.23;;;7.60;99.90;;;;;;5026329;28;20264;-79
2023/01/14 03:27:39;;;;;;;23.33;4.90;;;7.60;99.90;;;;;;5025064;28;20230;-81
2023/01/14 03:30:09;;;;;;;20.17;5.17;;;7.60;99.90;;;;;;5024829;28;20543;-79
2023/01/14 03:32:43;;;;;;;28.07;4.90;;;7.50;99.90;;;;;;5025363;28;20203;-80
2023/01/14 03:35:14;;;;;;;23.37;5.13;;;7.60;99.90;;;;;;5026466;28;20199;-82
2023/01/14 03:37:46;;;;;;;23.73;5.13;;;7.50;99.90;;;;;;5034772;28;20206;-85
2023/01/14 03:40:16;;;;;;;25.23;5.57;;;7.50;99.90;;;;;;5046388;28;20205;-80
2023/01/14 03:42:47;;;;;;;21.03;5.67;;;7.50;99.90;;;;;;5045588;28;21023;-79
2023/01/14 03:45:18;;;;;;;23.00;4.77;;;7.40;99.90;;;;;;5045919;28;20280;-78
2023/01/14 03:47:47;;;;;;;26.90;5.83;;;7.40;99.90;;;;;;5045774;28;20868;-80
2023/01/14 03:50:18;;;;;;;23.90;5.10;;;7.40;99.90;;;;;;5027743;28;20218;-83
2023/01/14 03:52:55;;;;;;;18.80;4.27;;;7.40;99.90;;;;;;5025446;28;20218;-79
2023/01/14 03:55:29;;;;;;;28.47;5.03;;;7.30;99.90;;;;;;5027290;28;20209;-81
2023/01/14 03:58:04;;;;;;;29.60;5.17;;;7.40;99.90;;;;;;5027424;28;20208;-87
2023/01/14 04:00:34;;;;;;;18.50;4.07;;;7.40;99.90;;;;;;5024670;28;20199;-78
2023/01/14 04:03:08;;;;;;;23.40;4.13;;;7.40;99.90;;;;;;5026807;28;20285;-82
2023/01/14 04:05:36;;;;;;;22.80;5.27;;;7.30;99.90;;;;;;5027854;28;20209;-80
2023/01/14 04:08:05;;;;;;;19.23;4.80;;;7.30;99.90;;;;;;5028834;28;20213;-82
2023/01/14 04:10:32;;;;;;;17.43;3.90;;;7.30;99.90;;;;;;5028416;28;20225;-79
2023/01/14 04:15:44;;;;;;;22.70;4.63;;;7.20;99.90;;;;;;5043620;28;20241;-77
2023/01/14 04:18:12;;;;;;;22.27;4.40;;;7.20;99.90;;;;;;5046024;28;20212;-80
2023/01/14 04:20:39;;;;;;;19.93;5.37;;;7.20;99.90;;;;;;5024502;28;20290;-79
2023/01/14 04:23:06;;;;;;;20.80;4.20;;;7.20;99.90;;;;;;5032453;28;20209;-77
2023/01/14 04:25:33;;;;;;;15.63;4.20;;;7.20;99.90;;;;;;5046155;28;20198;-79
2023/01/14 04:27:59;;;;;;;21.63;5.13;;;7.20;99.90;;;;;;5028946;28;20221;-80
2023/01/14 04:30:27;;;;;;;21.50;4.33;;;7.20;99.90;;;;;;5026285;28;20880;-81
2023/01/14 04:32:54;;;;;;;24.30;5.80;;;7.10;99.90;;;;;;5026012;28;20316;-78
2023/01/14 04:35:22;;;;;;;21.13;4.70;;;7.20;99.90;;;;;;5026431;28;20290;-81
2023/01/14 04:37:50;;;;;;;17.67;4.33;;;7.10;99.90;;;;;;5026039;28;20195;-79
2023/01/14 04:40:17;;;;;;;19.57;5.10;;;7.10;99.90;;;;;;5041356;28;20206;-82
2023/01/14 04:42:44;;;;;;;23.50;5.03;;;7.10;99.90;;;;;;5046783;28;20289;-81
2023/01/14 04:45:12;;;;;;;20.63;3.60;;;7.10;99.90;;;;;;5042976;28;20962;-84
2023/01/14 04:47:39;;;;;;;22.00;3.80;;;7.10;99.90;;;;;;5027270;28;20206;-83
2023/01/14 04:52:49;;;;;;;21.03;5.67;;;7.00;99.90;;;;;;5025136;28;20301;-77
2023/01/14 04:55:16;;;;;;;28.97;4.47;;;7.00;99.90;;;;;;5026570;28;20542;-78
2023/01/14 04:57:43;;;;;;;22.00;4.30;;;7.00;99.90;;;;;;5026066;28;20206;-78
2023/01/14 05:00:11;;;;;;;25.77;5.20;;;7.00;99.90;;;;;;5026536;28;20741;-78
2023/01/14 05:02:38;;;;;;;24.10;5.00;;;7.00;99.90;;;;;;5030805;28;20217;-84
2023/01/14 05:05:05;;;;;;;19.03;4.43;;;7.00;99.90;;;;;;5031431;28;20517;-83
2023/01/14 05:07:32;;;;;;;23.57;5.13;;;7.00;99.90;;;;;;5047591;28;20241;-85
2023/01/14 05:10:01;;;;;;;21.47;5.60;;;7.00;99.90;;;;;;5050962;28;20202;-89
2023/01/14 05:12:27;;;;;;;26.13;5.10;;;7.10;99.90;;;;;;5031088;28;20314;-86
2023/01/14 05:14:54;;;;;;;23.67;5.73;;;7.10;99.90;;;;;;5030714;28;20329;-88
2023/01/14 05:17:21;;;;;;;28.30;5.67;;;7.10;99.90;;;;;;5027503;28;20847;-78
2023/01/14 05:19:48;;;;;;;22.03;4.93;;;7.10;99.90;;;;;;5026905;28;20858;-77
2023/01/14 05:22:15;;;;;;;23.90;5.03;;;7.10;99.90;;;;;;5025722;28;20216;-78
2023/01/14 05:24:42;;;;;;;27.57;5.27;;;7.10;99.90;;;;;;5025679;28;20211;-77
2023/01/14 05:27:10;;;;;;;24.87;4.43;;;7.10;99.90;;;;;;5025874;28;20595;-83
2023/01/14 05:29:38;;;;;;;25.30;5.37;;;7.10;99.90;;;;;;5024638;28;20213;-82
2023/01/14 05:32:05;;;;;;;21.40;5.17;;;7.10;99.90;;;;;;5024998;28;20265;-79
2023/01/14 05:34:32;;;;;;;23.27;5.60;;;7.20;99.90;;;;;;5025050;28;20599;-78
2023/01/14 05:36:59;;;;;;;28.53;6.93;;;7.20;99.90;;;;;;5025478;28;20210;-77
2023/01/14 05:39:26;;;;;;;18.43;5.40;;;7.20;99.90;;;;;;5025959;28;20208;-79
2023/01/14 05:47:24;;;;;;;20.87;5.20;;;7.30;99.90;;;;;;5026292;28;20213;-78
2023/01/14 05:49:50;;;;;;;23.20;6.40;;;7.30;99.90;;;;;;5027243;28;20207;-89
2023/01/14 05:52:17;;;;;;;31.20;6.40;;;7.30;99.90;;;;;;5025291;28;20218;-79
2023/01/14 05:54:44;;;;;;;24.53;7.27;;;7.30;99.90;;;;;;5042837;28;20245;-84
2023/01/14 05:57:14;;;;;;;26.70;5.97;;;7.30;99.90;;;;;;5045756;28;20614;-84
2023/01/14 05:59:43;;;;;;;31.77;8.53;;;7.40;99.90;;;;;;5030573;28;20206;-81
2023/01/14 06:07:50;;;;;;;18.77;5.90;;;7.40;99.90;;;;;;5026917;28;20210;-79
2023/01/14 06:10:17;;;;;;;27.27;7.00;;;7.40;99.90;;;;;;5025656;28;20849;-79
2023/01/14 06:12:58;;;;;;;31.93;6.33;;;7.40;99.90;;;;;;5025363;28;20313;-81
2023/01/14 06:15:32;;;;;;;27.80;6.90;;;7.40;99.90;;;;;;5025971;28;20280;-84
2023/01/14 06:18:09;;;;;;;26.70;5.77;;;7.40;99.90;;;;;;5026174;28;20229;-78
2023/01/14 06:20:36;;;;;;;26.43;5.27;;;7.40;99.90;;;;;;5024343;28;20252;-78
2023/01/14 06:23:03;;;;;;;31.63;6.23;;;7.40;99.90;;;;;;5024171;28;20301;-77
2023/01/14 06:25:30;;;;;;;21.40;5.47;;;7.40;99.90;;;;;;5022503;28;20210;-77
2023/01/14 06:27:57;;;;;;;19.87;4.57;;;7.40;99.90;;;;;;5023596;28;20202;-78
2023/01/14 06:30:25;;;;;;;23.20;4.73;;;7.40;99.90;;;;;;5023988;28;20628;-77
2023/01/14 06:32:52;;;;;;;24.97;5.70;;;7.40;99.90;;;;;;5026300;28;20429;-77
2023/01/14 06:35:19;;;;;;;22.03;5.23;;;7.40;99.90;;;;;;5045403;28;20209;-78
2023/01/14 06:37:46;;;;;;;20.73;4.63;;;7.40;99.90;;;;;;5047347;28;20313;-88
2023/01/14 06:40:14;;;;;;;22.27;6.33;;;7.40;99.90;;;;;;5048550;28;20221;-84
2023/01/14 06:42:42;;;;;;;24.40;5.80;;;7.40;99.90;;;;;;5049765;28;20208;-87
2023/01/14 06:45:10;;;;;;;24.47;5.10;;;7.40;99.90;;;;;;5040504;28;20217;-85
2023/01/14 06:47:39;;;;;;;24.37;5.33;;;7.40;99.90;;;;;;5029030;28;20198;-86
2023/01/14 06:50:07;;;;;;;21.77;5.00;;;7.30;99.90;;;;;;5029279;28;20292;-78
2023/01/14 06:52:38;;;;;;;20.37;5.47;;;7.30;99.90;;;;;;5043381;28;20254;-89
2023/01/14 06:55:05;;;;;;;26.57;4.77;;;7.40;99.90;;;;;;5023994;28;20221;-77
2023/01/14 06:57:32;;;;;;;26.17;6.83;;;7.40;99.90;;;;;;5024627;28;20198;-78
2023/01/14 06:59:59;;;;;;;23.50;5.67;;;7.30;99.90;;;;;;5024477;28;20210;-77
2023/01/14 07:02:26;;;;;;;24.07;5.47;;;7.30;99.90;;;;;;5026166;28;20206;-87
2023/01/14 07:04:54;;;;;;;27.20;5.80;;;7.30;99.90;;;;;;5026817;28;20617;-78
2023/01/14 07:07:21;;;;;;;26.63;5.40;;;7.30;99.90;;;;;;5028414;28;20195;-79
2023/01/14 07:09:48;;;;;;;20.73;4.73;;;7.30;99.90;;;;;;5028397;28;20297;-89
2023/01/14 07:12:15;;;;;;;29.47;5.37;;;7.30;99.90;;;;;;5028038;28;20229;-82
2023/01/14 07:14:42;;;;;;;20.47;5.17;;;7.30;99.90;;;;;;5026508;28;20289;-79
2023/01/14 07:17:08;;;;;;;27.30;5.63;;;7.20;99.90;;;;;;5026533;28;20199;-80
2023/01/14 07:19:35;;;;;;;19.07;5.27;;;7.20;99.90;;;;;;5024016;28;20203;-85
2023/01/14 07:22:04;;;;;;;22.67;4.70;;;7.20;99.90;;;;;;5023274;28;20714;-79
2023/01/14 07:24:31;;;;;;;23.00;6.27;;;7.20;99.90;;;;;;5025207;28;20212;-89
2023/01/14 07:26:58;;;;;;;25.37;5.27;;;7.20;99.90;;;;;;5029507;28;20202;-85
2023/01/14 07:29:25;;;;;;;24.77;5.13;;;7.30;99.90;;;;;;5029397;28;20296;-85
2023/01/14 07:31:52;;;;;;;26.47;6.80;;;7.20;99.90;;;;;;5029062;28;20198;-81
2023/01/14 07:34:19;;;;;;;24.13;5.90;;;7.20;99.90;;;;;;5028963;28;20194;-84
2023/01/14 07:36:46;;;;;;;25.97;6.50;;;7.20;99.90;;;;;;5029785;28;20554;-89
2023/01/14 07:39:14;;;;;;;29.73;5.90;;;7.20;99.90;;;;;;5033448;28;20297;-89
2023/01/14 07:41:41;;;;;;;23.63;5.30;;;7.20;99.90;;;;;;5033175;28;20309;-89
2023/01/14 07:44:08;;;;;;;24.07;6.40;;;7.20;99.90;;;;;;5039325;28;20201;-78
2023/01/14 07:46:35;;;;;;;19.03;5.43;;;7.20;99.90;;;;;;5038526;28;20289;-83
2023/01/14 07:49:02;;;;;;;27.73;6.03;;;7.20;99.90;;;;;;5032065;28;20215;-83
2023/01/14 07:51:29;;;;;;;19.70;5.53;;;7.10;99.90;;;;;;5043153;28;20213;-82
2023/01/14 07:53:56;;;;;;;23.10;6.10;;;7.20;99.90;;;;;;5052359;28;20226;-87
2023/01/14 07:56:24;;;;;;;21.97;5.60;;;7.20;99.90;;;;;;5051701;28;20216;-88
2023/01/14 07:58:51;;;;;;;21.83;6.23;;;7.20;99.90;;;;;;5051558;28;20289;-83
2023/01/14 08:01:18;;;;;;;18.63;5.33;;;7.20;99.90;;;;;;5048403;28;20199;-83
2023/01/14 08:03:45;;;;;;;19.87;5.30;;;7.20;99.90;;;;;;5031986;28;20921;-86
2023/01/14 08:06:12;;;;;;;15.60;5.03;;;7.20;99.90;;;;;;5032360;28;20282;-87
2023/01/14 08:08:39;;;;;;;21.10;6.30;;;7.20;99.90;;;;;;5032413;28;20293;-88
2023/01/14 08:11:06;;;;;;;13.17;5.63;;;7.20;99.90;;;;;;5031823;28;20195;-83
2023/01/14 08:13:34;;;;;;;16.33;5.50;;;7.30;99.90;;;;;;5032460;28;20226;-87
2023/01/14 08:16:03;;;;;;;13.50;5.13;;;7.30;99.90;;;;;;5032291;28;21038;-87
2023/01/14 08:18:31;;;;;;;12.83;6.07;;;7.20;99.90;;;;;;5038170;28;20193;-88
2023/01/14 08:20:59;;;;;;;18.07;7.07;;;7.20;99.90;;;;;;5049067;28;20629;-85
2023/01/14 08:23:26;;;;;;;24.47;6.83;;;7.30;99.90;;;;;;5048743;28;20206;-80
2023/01/14 08:25:54;;;;;;;15.63;6.00;;;7.30;99.90;;;;;;5051801;28;20835;-84
2023/01/14 08:28:20;;;;;;;20.40;6.80;;;7.30;99.90;;;;;;5044358;28;20640;-85
2023/01/14 08:30:49;;;;;;;12.33;5.90;;;7.30;99.90;;;;;;5052178;28;20293;-83
2023/01/14 08:33:16;;;;;;;18.97;6.20;;;7.30;99.90;;;;;;5047399;28;20279;-87
2023/01/14 08:35:42;;;;;;;16.03;6.20;;;7.40;99.90;;;;;;5047390;28;20202;-84
2023/01/14 08:38:09;;;;;;;14.53;6.00;;;7.40;99.90;;;;;;5048458;28;20293;-85
2023/01/14 08:40:37;;;;;;;12.70;5.70;;;7.40;99.90;;;;;;5051179;28;20204;-81
2023/01/14 08:43:03;;;;;;;12.53;5.53;;;7.40;99.90;;;;;;5054009;28;20229;-86
2023/01/14 08:45:30;;;;;;;12.63;5.40;;;7.40;99.90;;;;;;5052712;28;20436;-85
2023/01/14 08:48:00;;;;;;;14.80;5.87;;;7.50;99.90;;;;;;5052148;28;20657;-85
2023/01/14 08:50:26;;;;;;;13.97;5.57;;;7.50;99.90;;;;;;5048639;28;20714;-86
2023/01/14 08:52:53;;;;;;;9.67;5.43;;;7.50;99.90;;;;;;5048143;28;20229;-84
2023/01/14 08:55:21;;;;;;;10.27;5.40;;;7.50;99.90;;;;;;5049905;28;20329;-80
2023/01/14 08:57:47;;;;;;;6.70;4.70;;;7.60;99.90;;;;;;5047444;28;20237;-84
2023/01/14 09:00:16;;;;;;;11.37;5.63;;;7.60;99.90;;;;;;5049614;28;20210;-79
2023/01/14 09:02:42;;;;;;;8.93;5.20;;;7.60;99.90;;;;;;5027992;28;20206;-85
2023/01/14 09:05:13;;;;;;;7.37;5.53;;;7.70;99.90;;;;;;5047917;28;20222;-81
2023/01/14 09:18:39;;;;;;;8.97;5.33;;;7.70;99.90;;;;;;5026090;28;20210;-77
2023/01/14 09:21:07;;;;;;;11.93;6.27;;;7.80;99.90;;;;;;5026081;28;20297;-76
2023/01/14 09:23:36;;;;;;;12.03;6.10;;;7.80;99.90;;;;;;5027816;28;20450;-77
2023/01/14 09:26:02;;;;;;;11.33;5.60;;;7.80;99.90;;;;;;5038832;28;20578;-77
2023/01/14 09:28:29;;;;;;;14.87;6.63;;;7.80;99.90;;;;;;5037377;28;20208;-75
2023/01/14 09:30:56;;;;;;;8.03;5.60;;;7.90;99.90;;;;;;5039006;28;20198;-79
2023/01/14 09:33:23;;;;;;;6.90;5.10;;;7.90;99.90;;;;;;5025318;28;20856;-77
2023/01/14 09:35:50;;;;;;;8.50;7.30;;;7.90;99.90;;;;;;5025476;28;20602;-76
2023/01/14 09:38:18;;;;;;;9.17;5.40;;;8.00;99.90;;;;;;5026090;28;20296;-77
2023/01/14 09:40:45;;;;;;;9.80;5.07;;;8.00;99.90;;;;;;5025662;28;20297;-78
2023/01/14 09:43:17;;;;;;;10.27;5.50;;;8.00;99.90;;;;;;5030259;28;20190;-79
2023/01/14 09:45:45;;;;;;;10.70;5.13;;;8.00;99.90;;;;;;5044998;28;20501;-78
2023/01/14 09:48:15;;;;;;;7.40;4.87;;;8.00;99.90;;;;;;5042301;28;20614;-79
2023/01/14 09:50:51;;;;;;;9.20;4.50;;;8.10;99.90;;;;;;5043864;28;20198;-77
2023/01/14 09:53:38;;;;;;;7.67;4.67;;;8.10;99.90;;;;;;5044373;28;20588;-81
2023/01/14 09:56:13;;;;;;;10.27;4.63;;;8.20;99.90;;;;;;5036134;28;20299;-77
2023/01/14 09:58:49;;;;;;;7.03;3.87;;;8.20;99.90;;;;;;5043625;28;20189;-80
2023/01/14 10:01:21;;;;;;;10.53;4.30;;;8.20;99.90;;;;;;5044748;28;20680;-79
2023/01/14 10:03:54;;;;;;;9.07;4.20;;;8.30;99.90;;;;;;5042295;28;20255;-78
2023/01/14 10:06:21;;;;;;;8.40;3.83;;;8.30;99.90;;;;;;5045460;28;20212;-82
2023/01/14 10:08:54;;;;;;;6.17;4.13;;;8.30;99.90;;;;;;5030224;28;20202;-79
2023/01/14 10:11:24;;;;;;;10.60;4.07;;;8.40;99.90;;;;;;5046163;28;20317;-77
2023/01/14 10:14:01;;;;;;;5.43;3.43;;;8.40;99.90;;;;;;5040054;28;20537;-77
2023/01/14 10:16:33;;;;;;;8.30;3.90;;;8.40;99.90;;;;;;5024511;28;20234;-79
2023/01/14 10:19:05;;;;;;;9.00;3.97;;;8.50;99.90;;;;;;5044103;28;20560;-78
2023/01/14 10:21:41;;;;;;;7.13;3.47;;;8.50;99.90;;;;;;5034168;28;20617;-79
2023/01/14 10:24:12;;;;;;;7.20;2.97;;;8.50;99.90;;;;;;5043956;28;20193;-76
2023/01/14 10:26:40;;;;;;;7.17;2.90;;;8.60;99.90;;;;;;5046303;28;20325;-88
2023/01/14 10:29:14;;;;;;;7.10;3.57;;;8.60;99.90;;;;;;5048597;28;20285;-88
2023/01/14 10:31:44;;;;;;;7.17;3.50;;;8.70;99.90;;;;;;5042778;28;20304;-90
2023/01/14 10:34:13;;;;;;;7.00;2.97;;;8.70;99.90;;;;;;5046134;28;20618;-89
2023/01/14 10:36:40;;;;;;;5.60;2.60;;;8.70;99.90;;;;;;5053432;28;20262;-88
2023/01/14 10:39:12;;;;;;;7.63;2.57;;;8.70;99.90;;;;;;5071794;28;20193;-88
2023/01/14 10:41:52;;;;;;;7.60;2.60;;;8.70;99.90;;;;;;5045807;28;20198;-84
2023/01/14 10:44:23;;;;;;;6.07;2.50;;;8.70;99.90;;;;;;5050649;28;20225;-86
2023/01/14 10:46:52;;;;;;;3.47;2.27;;;8.80;99.90;;;;;;5061096;28;20208;-85
2023/01/14 10:49:22;;;;;;;6.77;2.63;;;8.80;99.90;;;;;;5051278;28;20202;-84
2023/01/14 10:51:49;;;;;;;5.27;1.93;;;8.90;99.90;;;;;;5061113;28;20287;-88
2023/01/14 10:54:19;;;;;;;4.60;2.17;;;8.90;99.90;;;;;;5039060;28;20234;-93
2023/01/14 10:56:50;;;;;;;5.87;2.00;;;8.90;99.90;;;;;;5038930;28;20214;-90
2023/01/14 10:59:38;;;;;;;2.33;1.80;;;9.00;99.90;;;;;;5031317;28;20199;-88
2023/01/14 11:02:05;;;;;;;3.33;2.10;;;9.00;99.90;;;;;;5039220;28;20204;-87
2023/01/14 11:04:35;;;;;;;4.63;1.73;;;9.10;99.90;;;;;;5050856;28;20226;-89
2023/01/14 11:07:09;;;;;;;4.20;1.67;;;9.10;99.90;;;;;;5049974;28;20190;-88
2023/01/14 11:09:39;;;;;;;4.97;1.93;;;9.10;99.90;;;;;;5051093;28;20182;-86
2023/01/14 11:12:06;;;;;;;2.57;1.30;;;9.10;99.90;;;;;;5052661;28;20243;-90
2023/01/14 11:14:38;;;;;;;2.20;1.33;;;9.20;99.90;;;;;;5057237;28;20239;-92
2023/01/14 11:17:22;;;;;;;3.13;1.40;;;9.30;99.90;;;;;;5048365;28;20210;-87
2023/01/14 11:19:49;;;;;;;2.47;1.30;;;9.40;99.90;;;;;;5035597;28;20198;-88
2023/01/14 11:22:17;;;;;;;2.73;1.30;;;9.40;99.90;;;;;;5041755;28;20292;-78
2023/01/14 11:24:49;;;;;;;3.10;1.60;;;9.40;99.90;;;;;;5052854;28;20193;-83
2023/01/14 11:27:19;;;;;;;3.43;1.50;;;9.50;99.90;;;;;;5054459;28;20205;-78
2023/01/14 11:29:51;;;;;;;2.47;1.60;;;9.60;99.90;;;;;;5050622;28;20296;-83
2023/01/14 11:32:24;;;;;;;3.97;1.60;;;9.60;99.90;;;;;;5056220;28;20209;-89
2023/01/14 11:34:52;;;;;;;3.80;1.83;;;9.60;99.90;;;;;;5055400;28;20260;-84
2023/01/14 11:37:22;;;;;;;2.47;1.43;;;9.70;99.90;;;;;;5055728;28;20288;-84
2023/01/14 11:39:53;;;;;;;2.50;2.00;;;9.70;99.90;;;;;;5049927;28;20632;-79
2023/01/14 11:42:38;;;;;;;2.30;1.40;;;9.70;99.90;;;;;;5047741;28;20286;-84
2023/01/14 11:45:18;;;;;;;4.17;1.80;;;9.80;99.90;;;;;;5037079;28;20206;-87
2023/01/14 11:47:48;;;;;;;5.03;2.03;;;9.80;99.90;;;;;;5036627;28;20206;-80
2023/01/14 11:50:22;;;;;;;4.63;1.47;;;9.90;99.90;;;;;;5049640;28;20544;-86
2023/01/14 11:53:00;;;;;;;1.67;1.30;;;10.00;99.90;;;;;;5052455;28;20313;-83
2023/01/14 11:55:32;;;;;;;6.37;2.07;;;10.00;99.90;;;;;;5048329;28;20290;-78
2023/01/14 11:58:03;;;;;;;3.17;1.50;;;10.00;99.90;;;;;;5052997;28;20256;-81
2023/01/14 12:00:32;;;;;;;3.90;1.67;;;10.10;99.90;;;;;;5054445;28;20205;-84
2023/01/14 12:03:04;;;;;;;1.43;1.30;;;10.20;99.90;;;;;;5053482;28;20255;-81
2023/01/14 12:05:32;;;;;;;6.63;1.90;;;10.30;99.90;;;;;;5053811;28;20289;-86
2023/01/14 12:08:05;;;;;;;2.00;1.30;;;10.30;99.90;;;;;;5054713;28;20589;-80
2023/01/14 12:10:36;;;;;;;3.57;1.70;;;10.30;99.90;;;;;;5054376;28;20186;-80
2023/01/14 12:18:48;;;;;;;4.77;1.30;;;10.40;99.90;;;;;;5042495;28;20613;-80
2023/01/14 12:21:17;;;;;;;3.93;1.40;;;10.50;99.90;;;;;;5030919;28;20556;-80
2023/01/14 12:23:49;;;;;;;3.17;1.20;;;10.50;99.90;;;;;;5032226;28;20205;-82
2023/01/14 12:26:22;;;;;;;2.73;1.73;;;10.60;99.90;;;;;;5032341;28;20201;-80
2023/01/14 12:28:56;;;;;;;3.03;1.30;;;10.60;99.90;;;;;;5031480;28;20199;-86
2023/01/14 12:31:30;;;;;;;2.23;1.30;;;10.60;99.90;;;;;;5031340;28;20670;-81
2023/01/14 12:34:01;;;;;;;2.73;1.40;;;10.60;99.90;;;;;;5046975;28;20259;-82
2023/01/14 12:36:36;;;;;;;2.73;0.97;;;10.70;99.90;;;;;;5049441;28;20190;-85
2023/01/14 12:48:00;;;;;;;5.13;1.40;;;10.80;99.90;;;;;;5031765;28;20229;-81
2023/01/14 12:50:29;;;;;;;8.07;2.40;;;10.80;99.90;;;;;;5048568;28;20229;-85
2023/01/14 12:52:56;;;;;;;5.13;1.60;;;10.80;99.90;;;;;;5030564;28;20238;-82
2023/01/14 12:55:29;;;;;;;4.80;1.80;;;10.90;99.90;;;;;;5029219;28;20306;-85
2023/01/14 12:57:59;;;;;;;6.03;1.30;;;10.90;99.90;;;;;;5031097;28;20198;-84
2023/01/14 13:00:29;;;;;;;4.40;1.60;;;10.90;99.90;;;;;;5029888;28;20505;-83
2023/01/14 13:02:59;;;;;;;7.33;1.73;;;10.90;99.90;;;;;;5030193;28;20302;-85
2023/01/14 13:05:28;;;;;;;6.93;2.10;;;10.80;99.90;;;;;;5030971;28;20718;-87
2023/01/14 13:07:59;;;;;;;7.23;1.67;;;10.80;99.90;;;;;;5048448;28;20209;-85
2023/01/14 13:10:30;;;;;;;6.77;2.30;;;10.90;99.90;;;;;;5051985;28;20237;-82
2023/01/14 13:13:00;;;;;;;10.67;2.13;;;10.80;99.90;;;;;;5049529;28;20253;-83
2023/01/14 13:15:31;;;;;;;10.33;2.13;;;10.90;99.90;;;;;;5031301;28;20265;-84
2023/01/14 13:17:59;;;;;;;7.67;1.80;;;10.90;99.90;;;;;;5027504;28;20195;-82
2023/01/14 13:20:51;;;;;;;5.50;1.80;;;10.90;99.90;;;;;;5028912;28;20213;-85
2023/01/14 13:23:51;;;;;;;7.70;2.23;;;10.90;99.90;;;;;;5029963;28;20213;-80
2023/01/14 13:26:20;;;;;;;7.53;2.73;;;10.90;99.90;;;;;;5030415;28;20273;-78
2023/01/14 13:29:21;;;;;;;5.57;1.93;;;10.90;99.90;;;;;;5039537;28;20214;-78
2023/01/14 13:31:48;;;;;;;11.73;2.93;;;10.90;99.90;;;;;;5045400;28;20198;-81
2023/01/14 13:34:37;;;;;;;13.80;3.20;;;11.00;99.90;;;;;;5028695;28;20225;-80
2023/01/14 13:37:19;;;;;;;11.77;2.33;;;10.90;99.90;;;;;;5030546;28;20194;-80
2023/01/14 13:39:54;;;;;;;12.00;2.77;;;10.90;99.90;;;;;;5033479;28;20277;-84
2023/01/14 13:42:27;;;;;;;10.43;2.50;;;10.90;99.90;;;;;;5047557;28;20265;-82
2023/01/14 13:44:57;;;;;;;11.90;2.17;;;11.00;99.90;;;;;;5050062;28;20214;-86
2023/01/14 13:47:29;;;;;;;12.97;3.10;;;10.90;99.90;;;;;;5048701;28;20298;-81
2023/01/14 13:50:01;;;;;;;7.17;2.80;;;11.00;99.90;;;;;;5042663;28;20206;-83